sensor_id;sensor_type;location;lat;lon;timestamp;pressure;altitude;pressure_sealevel;temperature;humidity
61357;BME280;47227;46.752;23.576;2023-04-08T01:00:06;96459.56;;;0.26;85.25
61357;BME280;47227;46.752;23.576;2023-04-08T01:02:44;96461.31;;;0.24;85.60
61357;BME280;47227;46.752;23.576;2023-04-08T01:05:22;96458.44;;;0.22;86.09
61357;BME280;47227;46.752;23.576;2023-04-08T01:07:53;96455.84;;;0.23;85.58
61357;BME280;47227;46.752;23.576;2023-04-08T01:10:25;96454.78;;;0.23;85.41
61357;BME280;47227;46.752;23.576;2023-04-08T01:13:00;96460.09;;;0.25;85.46
61357;BME280;47227;46.752;23.576;2023-04-08T01:15:32;96461.61;;;0.25;85.33
61357;BME280;47227;46.752;23.576;2023-04-08T01:18:06;96459.02;;;0.28;85.32
61357;BME280;47227;46.752;23.576;2023-04-08T01:20:34;96460.46;;;0.32;85.27
61357;BME280;47227;46.752;23.576;2023-04-08T01:23:19;96455.87;;;0.35;85.38
61357;BME280;47227;46.752;23.576;2023-04-08T01:25:52;96454.52;;;0.41;85.10
61357;BME280;47227;46.752;23.576;2023-04-08T01:28:24;96456.60;;;0.46;85.86
61357;BME280;47227;46.752;23.576;2023-04-08T01:30:56;96457.09;;;0.52;85.48
61357;BME280;47227;46.752;23.576;2023-04-08T01:33:26;96455.88;;;0.60;85.30
61357;BME280;47227;46.752;23.576;2023-04-08T01:35:56;96459.71;;;0.69;85.34
61357;BME280;47227;46.752;23.576;2023-04-08T01:38:27;96454.05;;;0.76;85.23
61357;BME280;47227;46.752;23.576;2023-04-08T01:40:56;96458.45;;;0.86;85.41
61357;BME280;47227;46.752;23.576;2023-04-08T01:43:25;96456.14;;;0.94;85.28
61357;BME280;47227;46.752;23.576;2023-04-08T01:45:59;96457.35;;;0.99;85.11
61357;BME280;47227;46.752;23.576;2023-04-08T01:48:29;96453.90;;;0.99;84.70
61357;BME280;47227;46.752;23.576;2023-04-08T01:50:57;96452.48;;;0.98;84.92
61357;BME280;47227;46.752;23.576;2023-04-08T01:53:26;96454.39;;;0.97;85.47
61357;BME280;47227;46.752;23.576;2023-04-08T01:55:59;96458.94;;;0.95;85.77
61357;BME280;47227;46.752;23.576;2023-04-08T01:58:32;96456.19;;;0.95;85.56
61357;BME280;47227;46.752;23.576;2023-04-08T02:01:05;96455.98;;;0.91;86.33
61357;BME280;47227;46.752;23.576;2023-04-08T02:03:40;96457.29;;;0.88;86.04
61357;BME280;47227;46.752;23.576;2023-04-08T02:06:09;96459.52;;;0.87;85.56
61357;BME280;47227;46.752;23.576;2023-04-08T02:08:38;96459.82;;;0.84;85.72
61357;BME280;47227;46.752;23.576;2023-04-08T02:11:06;96457.06;;;0.83;85.52
61357;BME280;47227;46.752;23.576;2023-04-08T02:13:34;96458.55;;;0.82;85.46
61357;BME280;47227;46.752;23.576;2023-04-08T02:16:09;96458.61;;;0.80;85.62
61357;BME280;47227;46.752;23.576;2023-04-08T02:18:44;96460.41;;;0.78;85.84
61357;BME280;47227;46.752;23.576;2023-04-08T02:21:18;96461.48;;;0.75;85.54
61357;BME280;47227;46.752;23.576;2023-04-08T02:23:49;96461.45;;;0.72;85.55
61357;BME280;47227;46.752;23.576;2023-04-08T02:26:19;96459.27;;;0.69;85.45
61357;BME280;47227;46.752;23.576;2023-04-08T02:28:49;96459.01;;;0.66;85.88
61357;BME280;47227;46.752;23.576;2023-04-08T02:31:23;96461.89;;;0.65;85.70
61357;BME280;47227;46.752;23.576;2023-04-08T02:33:55;96461.88;;;0.64;86.03
61357;BME280;47227;46.752;23.576;2023-04-08T02:36:38;96463.83;;;0.63;85.87
61357;BME280;47227;46.752;23.576;2023-04-08T02:39:07;96467.50;;;0.66;85.71
61357;BME280;47227;46.752;23.576;2023-04-08T02:41:35;96464.63;;;0.71;85.73
61357;BME280;47227;46.752;23.576;2023-04-08T02:44:03;96465.71;;;0.75;86.22
61357;BME280;47227;46.752;23.576;2023-04-08T02:46:31;96460.77;;;0.80;85.99
61357;BME280;47227;46.752;23.576;2023-04-08T02:48:59;96460.34;;;0.87;85.94
61357;BME280;47227;46.752;23.576;2023-04-08T02:51:27;96461.20;;;0.94;86.01
61357;BME280;47227;46.752;23.576;2023-04-08T02:53:55;96462.43;;;1.01;86.54
61357;BME280;47227;46.752;23.576;2023-04-08T02:56:23;96457.91;;;1.09;86.40
61357;BME280;47227;46.752;23.576;2023-04-08T02:58:51;96457.91;;;1.18;86.19
61357;BME280;47227;46.752;23.576;2023-04-08T03:01:19;96456.80;;;1.22;86.09
61357;BME280;47227;46.752;23.576;2023-04-08T03:03:47;96455.51;;;1.28;86.01
61357;BME280;47227;46.752;23.576;2023-04-08T03:06:15;96453.98;;;1.34;85.74
61357;BME280;47227;46.752;23.576;2023-04-08T03:08:43;96454.56;;;1.36;85.58
61357;BME280;47227;46.752;23.576;2023-04-08T03:11:11;96453.94;;;1.34;85.86
61357;BME280;47227;46.752;23.576;2023-04-08T03:13:39;96453.59;;;1.31;85.44
61357;BME280;47227;46.752;23.576;2023-04-08T03:16:07;96451.95;;;1.29;85.45
61357;BME280;47227;46.752;23.576;2023-04-08T03:18:35;96454.38;;;1.30;85.44
61357;BME280;47227;46.752;23.576;2023-04-08T03:21:04;96455.20;;;1.32;85.31
61357;BME280;47227;46.752;23.576;2023-04-08T03:23:32;96458.25;;;1.31;85.05
61357;BME280;47227;46.752;23.576;2023-04-08T03:26:00;96459.67;;;1.30;85.13
61357;BME280;47227;46.752;23.576;2023-04-08T03:28:28;96457.33;;;1.23;85.28
61357;BME280;47227;46.752;23.576;2023-04-08T03:30:56;96460.08;;;1.11;85.83
61357;BME280;47227;46.752;23.576;2023-04-08T03:33:24;96459.64;;;1.08;86.39
61357;BME280;47227;46.752;23.576;2023-04-08T03:35:53;96463.73;;;1.06;85.85
61357;BME280;47227;46.752;23.576;2023-04-08T03:38:22;96464.12;;;1.06;85.55
61357;BME280;47227;46.752;23.576;2023-04-08T03:40:50;96464.35;;;1.07;85.61
61357;BME280;47227;46.752;23.576;2023-04-08T03:43:18;96467.64;;;1.08;85.61
61357;BME280;47227;46.752;23.576;2023-04-08T03:45:48;96473.52;;;1.10;85.58
61357;BME280;47227;46.752;23.576;2023-04-08T03:48:16;96473.81;;;1.10;85.77
61357;BME280;47227;46.752;23.576;2023-04-08T03:50:44;96478.61;;;1.09;85.60
61357;BME280;47227;46.752;23.576;2023-04-08T03:53:12;96474.09;;;1.09;85.54
61357;BME280;47227;46.752;23.576;2023-04-08T03:55:40;96474.33;;;1.09;85.61
61357;BME280;47227;46.752;23.576;2023-04-08T03:58:08;96475.58;;;1.08;85.45
61357;BME280;47227;46.752;23.576;2023-04-08T04:00:36;96482.38;;;1.07;85.19
61357;BME280;47227;46.752;23.576;2023-04-08T04:03:04;96486.70;;;1.07;85.34
61357;BME280;47227;46.752;23.576;2023-04-08T04:05:33;96491.96;;;1.09;85.09
61357;BME280;47227;46.752;23.576;2023-04-08T04:08:01;96489.73;;;1.11;85.55
61357;BME280;47227;46.752;23.576;2023-04-08T04:10:29;96494.84;;;1.16;85.40
61357;BME280;47227;46.752;23.576;2023-04-08T04:12:56;96493.58;;;1.22;85.32
61357;BME280;47227;46.752;23.576;2023-04-08T04:15:24;96497.02;;;1.28;85.29
61357;BME280;47227;46.752;23.576;2023-04-08T04:17:52;96494.60;;;1.29;86.10
61357;BME280;47227;46.752;23.576;2023-04-08T04:20:20;96495.83;;;1.29;86.21
61357;BME280;47227;46.752;23.576;2023-04-08T04:22:48;96497.95;;;1.31;85.95
61357;BME280;47227;46.752;23.576;2023-04-08T04:25:16;96500.57;;;1.33;86.21
61357;BME280;47227;46.752;23.576;2023-04-08T04:27:44;96503.60;;;1.35;86.34
61357;BME280;47227;46.752;23.576;2023-04-08T04:30:12;96502.48;;;1.42;86.10
61357;BME280;47227;46.752;23.576;2023-04-08T04:32:42;96509.02;;;1.48;85.98
61357;BME280;47227;46.752;23.576;2023-04-08T04:35:11;96508.15;;;1.48;85.94
61357;BME280;47227;46.752;23.576;2023-04-08T04:37:39;96509.00;;;1.53;85.69
61357;BME280;47227;46.752;23.576;2023-04-08T04:40:08;96514.44;;;1.57;85.79
61357;BME280;47227;46.752;23.576;2023-04-08T04:42:36;96517.55;;;1.62;85.69
61357;BME280;47227;46.752;23.576;2023-04-08T04:45:04;96520.70;;;1.66;85.74
61357;BME280;47227;46.752;23.576;2023-04-08T04:47:32;96524.73;;;1.64;84.97
61357;BME280;47227;46.752;23.576;2023-04-08T04:50:00;96526.45;;;1.61;84.77
61357;BME280;47227;46.752;23.576;2023-04-08T04:52:28;96526.48;;;1.60;84.76
61357;BME280;47227;46.752;23.576;2023-04-08T04:54:57;96528.61;;;1.58;84.87
61357;BME280;47227;46.752;23.576;2023-04-08T04:57:25;96527.95;;;1.57;84.98
61357;BME280;47227;46.752;23.576;2023-04-08T04:59:53;96529.98;;;1.59;84.70
61357;BME280;47227;46.752;23.576;2023-04-08T05:02:21;96530.77;;;1.58;84.49
61357;BME280;47227;46.752;23.576;2023-04-08T05:04:50;96533.13;;;1.59;84.40
61357;BME280;47227;46.752;23.576;2023-04-08T05:07:20;96535.48;;;1.61;84.55
61357;BME280;47227;46.752;23.576;2023-04-08T05:09:49;96532.47;;;1.61;84.51
61357;BME280;47227;46.752;23.576;2023-04-08T05:12:17;96536.21;;;1.63;85.03
61357;BME280;47227;46.752;23.576;2023-04-08T05:14:47;96539.98;;;1.63;84.76
61357;BME280;47227;46.752;23.576;2023-04-08T05:17:15;96542.85;;;1.66;84.56
61357;BME280;47227;46.752;23.576;2023-04-08T05:19:43;96543.16;;;1.68;84.44
61357;BME280;47227;46.752;23.576;2023-04-08T05:22:11;96542.43;;;1.69;84.70
61357;BME280;47227;46.752;23.576;2023-04-08T05:24:39;96545.77;;;1.71;84.98
61357;BME280;47227;46.752;23.576;2023-04-08T05:27:07;96549.11;;;1.72;85.71
61357;BME280;47227;46.752;23.576;2023-04-08T05:29:35;96550.09;;;1.74;85.41
61357;BME280;47227;46.752;23.576;2023-04-08T05:32:03;96553.13;;;1.76;85.89
61357;BME280;47227;46.752;23.576;2023-04-08T05:34:31;96553.73;;;1.84;85.36
61357;BME280;47227;46.752;23.576;2023-04-08T05:36:59;96558.17;;;1.91;84.88
61357;BME280;47227;46.752;23.576;2023-04-08T05:39:27;96568.00;;;2.00;84.97
61357;BME280;47227;46.752;23.576;2023-04-08T05:41:55;96568.61;;;2.12;84.69
61357;BME280;47227;46.752;23.576;2023-04-08T05:44:23;96569.23;;;2.25;84.86
61357;BME280;47227;46.752;23.576;2023-04-08T05:46:51;96566.14;;;2.35;84.06
61357;BME280;47227;46.752;23.576;2023-04-08T05:49:19;96566.50;;;2.42;83.40
61357;BME280;47227;46.752;23.576;2023-04-08T05:51:47;96567.45;;;2.54;83.31
61357;BME280;47227;46.752;23.576;2023-04-08T05:54:15;96566.63;;;2.61;83.29
61357;BME280;47227;46.752;23.576;2023-04-08T05:56:43;96569.29;;;2.67;82.82
61357;BME280;47227;46.752;23.576;2023-04-08T05:59:13;96570.12;;;2.75;83.09
61357;BME280;47227;46.752;23.576;2023-04-08T06:01:41;96576.02;;;2.84;82.97
61357;BME280;47227;46.752;23.576;2023-04-08T06:04:09;96578.31;;;2.91;82.59
61357;BME280;47227;46.752;23.576;2023-04-08T06:06:37;96576.10;;;2.98;82.72
61357;BME280;47227;46.752;23.576;2023-04-08T06:09:06;96578.17;;;3.08;82.62
61357;BME280;47227;46.752;23.576;2023-04-08T06:11:35;96577.25;;;3.14;82.60
61357;BME280;47227;46.752;23.576;2023-04-08T06:14:03;96577.73;;;3.23;82.70
61357;BME280;47227;46.752;23.576;2023-04-08T06:16:31;96578.55;;;3.31;82.65
61357;BME280;47227;46.752;23.576;2023-04-08T06:18:59;96574.95;;;3.37;82.09
61357;BME280;47227;46.752;23.576;2023-04-08T06:21:27;96579.46;;;3.38;81.59
61357;BME280;47227;46.752;23.576;2023-04-08T06:23:55;96580.35;;;3.42;81.43
61357;BME280;47227;46.752;23.576;2023-04-08T06:26:24;96586.83;;;3.46;81.36
61357;BME280;47227;46.752;23.576;2023-04-08T06:28:52;96588.37;;;3.51;81.05
61357;BME280;47227;46.752;23.576;2023-04-08T06:31:20;96585.38;;;3.53;80.79
61357;BME280;47227;46.752;23.576;2023-04-08T06:33:48;96585.98;;;3.46;80.62
61357;BME280;47227;46.752;23.576;2023-04-08T06:36:16;96591.04;;;3.51;80.89
61357;BME280;47227;46.752;23.576;2023-04-08T06:38:44;96585.38;;;3.55;80.65
61357;BME280;47227;46.752;23.576;2023-04-08T06:41:12;96584.84;;;3.57;80.44
61357;BME280;47227;46.752;23.576;2023-04-08T06:43:40;96587.05;;;3.61;80.71
61357;BME280;47227;46.752;23.576;2023-04-08T06:46:08;96585.22;;;3.67;80.68
61357;BME280;47227;46.752;23.576;2023-04-08T06:48:36;96587.21;;;3.71;80.64
61357;BME280;47227;46.752;23.576;2023-04-08T06:51:05;96586.19;;;3.73;80.48
61357;BME280;47227;46.752;23.576;2023-04-08T06:53:34;96586.35;;;3.75;80.37
61357;BME280;47227;46.752;23.576;2023-04-08T06:56:02;96588.20;;;3.78;80.42
61357;BME280;47227;46.752;23.576;2023-04-08T06:58:30;96588.76;;;3.78;80.26
61357;BME280;47227;46.752;23.576;2023-04-08T07:00:59;96589.09;;;3.81;80.67
61357;BME280;47227;46.752;23.576;2023-04-08T07:03:28;96588.77;;;3.84;80.34
61357;BME280;47227;46.752;23.576;2023-04-08T07:05:56;96592.34;;;3.87;80.28
61357;BME280;47227;46.752;23.576;2023-04-08T07:08:24;96595.48;;;3.96;80.65
61357;BME280;47227;46.752;23.576;2023-04-08T07:10:52;96597.40;;;4.06;80.58
61357;BME280;47227;46.752;23.576;2023-04-08T09:39:10;96635.13;;;8.77;59.54
61357;BME280;47227;46.752;23.576;2023-04-08T09:41:39;96634.28;;;8.95;59.68
61357;BME280;47227;46.752;23.576;2023-04-08T09:44:10;96634.17;;;9.17;59.13
61357;BME280;47227;46.752;23.576;2023-04-08T09:46:46;96632.80;;;9.30;58.72
61357;BME280;47227;46.752;23.576;2023-04-08T09:52:12;96635.81;;;9.65;57.24
61357;BME280;47227;46.752;23.576;2023-04-08T09:54:51;96629.70;;;9.84;56.48
61357;BME280;47227;46.752;23.576;2023-04-08T09:57:26;96628.56;;;10.00;55.66
61357;BME280;47227;46.752;23.576;2023-04-08T10:00:04;96629.65;;;10.11;55.49
61357;BME280;47227;46.752;23.576;2023-04-08T10:02:59;96630.87;;;10.18;52.51
61357;BME280;47227;46.752;23.576;2023-04-08T10:05:29;96637.55;;;10.23;53.95
61357;BME280;47227;46.752;23.576;2023-04-08T10:07:58;96636.80;;;10.22;53.22
61357;BME280;47227;46.752;23.576;2023-04-08T10:10:26;96636.67;;;10.21;53.48
61357;BME280;47227;46.752;23.576;2023-04-08T10:12:54;96637.55;;;10.17;52.94
61357;BME280;47227;46.752;23.576;2023-04-08T10:15:26;96638.11;;;10.19;53.08
61357;BME280;47227;46.752;23.576;2023-04-08T10:21:04;96640.60;;;10.23;52.36
61357;BME280;47227;46.752;23.576;2023-04-08T10:23:55;96637.68;;;10.31;52.25
61357;BME280;47227;46.752;23.576;2023-04-08T10:26:40;96638.36;;;10.31;51.71
61357;BME280;47227;46.752;23.576;2023-04-08T10:32:07;96636.94;;;10.37;52.61
61357;BME280;47227;46.752;23.576;2023-04-08T10:34:50;96639.69;;;10.39;53.20
61357;BME280;47227;46.752;23.576;2023-04-08T10:37:19;96641.52;;;10.44;53.19
61357;BME280;47227;46.752;23.576;2023-04-08T10:39:48;96642.03;;;10.40;52.53
61357;BME280;47227;46.752;23.576;2023-04-08T10:42:18;96643.31;;;10.39;52.14
61357;BME280;47227;46.752;23.576;2023-04-08T10:44:46;96645.95;;;10.24;52.52
61357;BME280;47227;46.752;23.576;2023-04-08T10:50:55;96645.13;;;10.21;52.94
61357;BME280;47227;46.752;23.576;2023-04-08T10:53:29;96644.06;;;10.26;52.88
61357;BME280;47227;46.752;23.576;2023-04-08T10:56:11;96644.21;;;10.20;51.71
61357;BME280;47227;46.752;23.576;2023-04-08T10:58:51;96644.60;;;10.21;52.14
61357;BME280;47227;46.752;23.576;2023-04-08T11:01:19;96646.70;;;10.25;51.70
61357;BME280;47227;46.752;23.576;2023-04-08T11:03:48;96645.30;;;10.22;51.82
61357;BME280;47227;46.752;23.576;2023-04-08T11:06:17;96642.05;;;10.16;52.49
61357;BME280;47227;46.752;23.576;2023-04-08T11:08:46;96650.27;;;10.15;52.35
61357;BME280;47227;46.752;23.576;2023-04-08T11:11:15;96649.40;;;10.14;52.71
61357;BME280;47227;46.752;23.576;2023-04-08T11:13:44;96645.63;;;10.02;52.15
61357;BME280;47227;46.752;23.576;2023-04-08T11:16:20;96647.02;;;9.90;52.11
61357;BME280;47227;46.752;23.576;2023-04-08T11:18:50;96650.09;;;9.77;51.91
61357;BME280;47227;46.752;23.576;2023-04-08T11:21:19;96649.16;;;9.74;52.47
61357;BME280;47227;46.752;23.576;2023-04-08T11:23:49;96643.98;;;9.87;53.50
61357;BME280;47227;46.752;23.576;2023-04-08T11:26:19;96650.05;;;9.89;52.71
61357;BME280;47227;46.752;23.576;2023-04-08T11:28:48;96645.67;;;9.93;52.80
61357;BME280;47227;46.752;23.576;2023-04-08T11:31:19;96647.09;;;10.07;52.67
61357;BME280;47227;46.752;23.576;2023-04-08T11:33:53;96644.40;;;10.15;53.11
61357;BME280;47227;46.752;23.576;2023-04-08T11:36:24;96644.28;;;10.21;52.97
61357;BME280;47227;46.752;23.576;2023-04-08T11:39:06;96641.95;;;10.27;52.94
61357;BME280;47227;46.752;23.576;2023-04-08T11:41:36;96640.09;;;10.37;53.02
61357;BME280;47227;46.752;23.576;2023-04-08T11:44:05;96638.81;;;10.49;52.44
61357;BME280;47227;46.752;23.576;2023-04-08T11:46:38;96637.89;;;10.59;51.97
61357;BME280;47227;46.752;23.576;2023-04-08T11:49:10;96640.05;;;10.63;51.18
61357;BME280;47227;46.752;23.576;2023-04-08T11:54:31;96637.30;;;11.05;52.36
61357;BME280;47227;46.752;23.576;2023-04-08T11:57:00;96633.69;;;11.35;51.34
61357;BME280;47227;46.752;23.576;2023-04-08T11:59:29;96632.63;;;11.68;49.93
61357;BME280;47227;46.752;23.576;2023-04-08T12:01:58;96629.23;;;12.01;48.58
61357;BME280;47227;46.752;23.576;2023-04-08T12:04:27;96629.36;;;12.42;48.23
61357;BME280;47227;46.752;23.576;2023-04-08T12:06:57;96623.48;;;12.71;47.31
61357;BME280;47227;46.752;23.576;2023-04-08T12:09:31;96624.94;;;12.81;46.49
61357;BME280;47227;46.752;23.576;2023-04-08T12:11:59;96626.37;;;12.71;46.49
61357;BME280;47227;46.752;23.576;2023-04-08T12:14:28;96627.99;;;12.42;47.04
61357;BME280;47227;46.752;23.576;2023-04-08T12:16:56;96624.33;;;12.16;47.21
61357;BME280;47227;46.752;23.576;2023-04-08T12:19:25;96621.69;;;11.93;47.74
61357;BME280;47227;46.752;23.576;2023-04-08T12:21:54;96624.33;;;11.79;47.97
61357;BME280;47227;46.752;23.576;2023-04-08T12:24:22;96624.64;;;11.60;48.65
61357;BME280;47227;46.752;23.576;2023-04-08T12:26:50;96624.89;;;11.46;48.50
61357;BME280;47227;46.752;23.576;2023-04-08T12:29:18;96625.92;;;11.28;48.32
61357;BME280;47227;46.752;23.576;2023-04-08T12:31:48;96626.30;;;11.10;48.64
61357;BME280;47227;46.752;23.576;2023-04-08T12:34:16;96623.56;;;10.87;48.79
61357;BME280;47227;46.752;23.576;2023-04-08T12:36:45;96621.02;;;10.68;48.77
61357;BME280;47227;46.752;23.576;2023-04-08T12:39:15;96621.99;;;10.53;49.34
61357;BME280;47227;46.752;23.576;2023-04-08T12:41:44;96621.13;;;10.39;49.13
61357;BME280;47227;46.752;23.576;2023-04-08T12:44:12;96621.42;;;10.26;49.44
61357;BME280;47227;46.752;23.576;2023-04-08T12:46:40;96620.79;;;10.21;50.29
61357;BME280;47227;46.752;23.576;2023-04-08T12:49:08;96625.41;;;10.03;49.24
61357;BME280;47227;46.752;23.576;2023-04-08T12:51:36;96622.27;;;9.89;49.75
61357;BME280;47227;46.752;23.576;2023-04-08T12:54:05;96623.25;;;9.82;50.40
61357;BME280;47227;46.752;23.576;2023-04-08T12:56:34;96620.02;;;9.73;50.26
61357;BME280;47227;46.752;23.576;2023-04-08T12:59:02;96618.77;;;9.70;51.71
61357;BME280;47227;46.752;23.576;2023-04-08T13:01:30;96618.58;;;9.70;51.31
61357;BME280;47227;46.752;23.576;2023-04-08T13:03:58;96620.71;;;9.62;51.17
61357;BME280;47227;46.752;23.576;2023-04-08T13:06:28;96619.06;;;9.61;51.26
61357;BME280;47227;46.752;23.576;2023-04-08T13:08:56;96620.51;;;9.54;50.71
61357;BME280;47227;46.752;23.576;2023-04-08T13:11:25;96617.66;;;9.54;51.06
61357;BME280;47227;46.752;23.576;2023-04-08T13:13:53;96619.56;;;9.55;50.59
61357;BME280;47227;46.752;23.576;2023-04-08T13:16:22;96612.61;;;9.63;50.87
61357;BME280;47227;46.752;23.576;2023-04-08T13:18:50;96616.23;;;9.63;50.11
61357;BME280;47227;46.752;23.576;2023-04-08T13:21:19;96611.14;;;9.66;49.76
61357;BME280;47227;46.752;23.576;2023-04-08T13:23:48;96613.40;;;9.80;50.24
61357;BME280;47227;46.752;23.576;2023-04-08T13:26:16;96609.36;;;9.91;49.99
61357;BME280;47227;46.752;23.576;2023-04-08T13:28:44;96611.29;;;9.87;49.33
61357;BME280;47227;46.752;23.576;2023-04-08T13:31:52;96608.05;;;9.82;49.57
61357;BME280;47227;46.752;23.576;2023-04-08T13:34:21;96605.45;;;9.83;50.08
61357;BME280;47227;46.752;23.576;2023-04-08T13:36:52;96605.67;;;9.86;50.61
61357;BME280;47227;46.752;23.576;2023-04-08T13:39:30;96605.77;;;9.95;50.03
61357;BME280;47227;46.752;23.576;2023-04-08T13:42:02;96607.94;;;9.97;50.16
61357;BME280;47227;46.752;23.576;2023-04-08T13:44:30;96601.95;;;9.69;48.74
61357;BME280;47227;46.752;23.576;2023-04-08T13:46:59;96601.12;;;9.61;49.80
61357;BME280;47227;46.752;23.576;2023-04-08T13:49:28;96600.50;;;9.65;49.63
61357;BME280;47227;46.752;23.576;2023-04-08T13:51:58;96603.73;;;9.67;49.78
61357;BME280;47227;46.752;23.576;2023-04-08T13:54:28;96602.84;;;9.69;50.25
61357;BME280;47227;46.752;23.576;2023-04-08T13:56:57;96600.48;;;9.67;50.24
61357;BME280;47227;46.752;23.576;2023-04-08T13:59:25;96598.14;;;9.65;50.11
61357;BME280;47227;46.752;23.576;2023-04-08T14:01:55;96599.04;;;9.71;50.74
61357;BME280;47227;46.752;23.576;2023-04-08T14:04:23;96596.39;;;9.80;51.11
61357;BME280;47227;46.752;23.576;2023-04-08T14:06:51;96596.13;;;9.84;50.53
61357;BME280;47227;46.752;23.576;2023-04-08T14:09:21;96597.89;;;9.88;50.53
61357;BME280;47227;46.752;23.576;2023-04-08T14:11:49;96601.59;;;9.92;49.85
61357;BME280;47227;46.752;23.576;2023-04-08T14:14:16;96601.18;;;9.90;49.06
61357;BME280;47227;46.752;23.576;2023-04-08T14:16:44;96602.20;;;9.89;49.30
61357;BME280;47227;46.752;23.576;2023-04-08T14:19:21;96605.14;;;9.87;49.17
61357;BME280;47227;46.752;23.576;2023-04-08T14:21:49;96603.30;;;9.81;49.92
61357;BME280;47227;46.752;23.576;2023-04-08T14:24:17;96607.33;;;9.79;49.70
61357;BME280;47227;46.752;23.576;2023-04-08T14:26:45;96609.24;;;9.71;49.17
61357;BME280;47227;46.752;23.576;2023-04-08T14:29:13;96607.69;;;9.61;49.49
61357;BME280;47227;46.752;23.576;2023-04-08T14:31:41;96612.66;;;9.52;49.16
61357;BME280;47227;46.752;23.576;2023-04-08T14:34:08;96607.80;;;9.40;49.76
61357;BME280;47227;46.752;23.576;2023-04-08T14:36:38;96608.16;;;9.37;50.03
61357;BME280;47227;46.752;23.576;2023-04-08T14:39:05;96607.02;;;9.33;50.46
61357;BME280;47227;46.752;23.576;2023-04-08T14:51:46;96606.85;;;8.92;51.23
61357;BME280;47227;46.752;23.576;2023-04-08T14:54:14;96611.63;;;8.83;51.48
61357;BME280;47227;46.752;23.576;2023-04-08T14:56:44;96608.11;;;8.78;51.84
61357;BME280;47227;46.752;23.576;2023-04-08T14:59:11;96609.38;;;8.78;52.36
61357;BME280;47227;46.752;23.576;2023-04-08T15:01:39;96611.58;;;8.74;52.47
61357;BME280;47227;46.752;23.576;2023-04-08T15:04:08;96613.20;;;8.74;52.61
61357;BME280;47227;46.752;23.576;2023-04-08T15:06:36;96609.95;;;8.65;52.47
61357;BME280;47227;46.752;23.576;2023-04-08T15:09:05;96608.67;;;8.55;53.16
61357;BME280;47227;46.752;23.576;2023-04-08T15:11:34;96607.38;;;8.50;53.02
61357;BME280;47227;46.752;23.576;2023-04-08T15:14:01;96609.91;;;8.50;53.28
61357;BME280;47227;46.752;23.576;2023-04-08T15:16:29;96609.42;;;8.50;53.41
61357;BME280;47227;46.752;23.576;2023-04-08T15:18:57;96611.02;;;8.46;53.54
61357;BME280;47227;46.752;23.576;2023-04-08T15:21:26;96607.66;;;8.41;53.36
61357;BME280;47227;46.752;23.576;2023-04-08T15:23:54;96606.79;;;8.32;53.26
61357;BME280;47227;46.752;23.576;2023-04-08T15:26:22;96606.98;;;8.23;53.15
61357;BME280;47227;46.752;23.576;2023-04-08T16:42:31;96657.27;;;6.98;57.48
61357;BME280;47227;46.752;23.576;2023-04-08T17:07:38;96673.06;;;6.74;58.64
61357;BME280;47227;46.752;23.576;2023-04-08T20:40:20;96765.89;;;4.96;65.77
61357;BME280;47227;46.752;23.576;2023-04-08T20:42:48;96765.60;;;4.95;65.58
61357;BME280;47227;46.752;23.576;2023-04-08T20:45:16;96767.48;;;4.94;65.36
61357;BME280;47227;46.752;23.576;2023-04-08T20:47:43;96765.68;;;4.92;65.58
61357;BME280;47227;46.752;23.576;2023-04-08T20:50:12;96769.09;;;4.91;65.48
61357;BME280;47227;46.752;23.576;2023-04-08T20:52:40;96771.27;;;4.89;65.63
61357;BME280;47227;46.752;23.576;2023-04-08T20:55:08;96772.23;;;4.89;65.94
61357;BME280;47227;46.752;23.576;2023-04-08T20:57:36;96773.52;;;4.88;65.98
61357;BME280;47227;46.752;23.576;2023-04-08T21:00:05;96774.04;;;4.89;66.21
61357;BME280;47227;46.752;23.576;2023-04-08T21:02:33;96777.48;;;4.91;66.62
61357;BME280;47227;46.752;23.576;2023-04-08T21:05:01;96780.44;;;4.89;67.89
61357;BME280;47227;46.752;23.576;2023-04-08T21:07:29;96778.84;;;4.90;67.82
61357;BME280;47227;46.752;23.576;2023-04-08T21:09:57;96777.98;;;4.93;67.32
61357;BME280;47227;46.752;23.576;2023-04-08T21:12:25;96778.09;;;5.01;67.27
61357;BME280;47227;46.752;23.576;2023-04-08T21:14:53;96785.29;;;5.08;67.20
61357;BME280;47227;46.752;23.576;2023-04-08T21:17:21;96782.69;;;5.15;66.94
61357;BME280;47227;46.752;23.576;2023-04-08T21:19:49;96788.02;;;5.20;67.03
61357;BME280;47227;46.752;23.576;2023-04-08T21:22:17;96786.10;;;5.23;66.75
61357;BME280;47227;46.752;23.576;2023-04-08T21:24:45;96789.98;;;5.25;66.71
61357;BME280;47227;46.752;23.576;2023-04-08T21:27:13;96791.30;;;5.27;66.72
61357;BME280;47227;46.752;23.576;2023-04-08T21:29:41;96788.50;;;5.25;66.46
61357;BME280;47227;46.752;23.576;2023-04-08T21:32:08;96789.86;;;5.21;66.46
61357;BME280;47227;46.752;23.576;2023-04-08T21:34:37;96788.82;;;5.17;66.32
61357;BME280;47227;46.752;23.576;2023-04-08T21:37:04;96793.25;;;5.12;66.50
61357;BME280;47227;46.752;23.576;2023-04-08T21:39:32;96793.09;;;5.07;66.83
